createdAt,value
2023-04-13T00:04:15.483Z,7.52
2023-04-13T00:09:20.323Z,7.46
2023-04-13T00:14:27.642Z,7.40
2023-04-13T00:19:31.058Z,7.33
2023-04-13T00:24:37.173Z,7.27
2023-04-13T00:29:40.917Z,7.32
2023-04-13T00:34:44.387Z,7.28
2023-04-13T00:39:49.381Z,7.26
2023-04-13T00:44:52.886Z,7.24
2023-04-13T00:49:57.070Z,7.21
2023-04-13T00:55:04.075Z,7.32
2023-04-13T01:00:10.211Z,7.34
2023-04-13T01:05:16.474Z,7.33
2023-04-13T01:10:27.975Z,7.36
2023-04-13T01:15:37.268Z,7.42
2023-04-13T01:20:45.708Z,7.42
2023-04-13T01:25:56.644Z,7.21
2023-04-13T01:31:05.358Z,7.42
2023-04-13T01:36:11.538Z,7.34
2023-04-13T01:41:15.686Z,7.32
2023-04-13T01:46:23.854Z,7.30
2023-04-13T01:51:30.702Z,7.32
2023-04-13T01:56:34.707Z,7.26
2023-04-13T02:01:40.806Z,7.13
2023-04-13T02:06:44.348Z,7.29
2023-04-13T02:11:48.130Z,7.34
2023-04-13T02:16:53.058Z,7.43
2023-04-13T02:21:56.201Z,7.43
2023-04-13T02:26:59.697Z,7.42
2023-04-13T02:32:04.748Z,7.42
2023-04-13T02:37:09.553Z,7.41
2023-04-13T02:42:13.012Z,7.31
2023-04-13T02:47:18.104Z,7.34
2023-04-13T02:52:22.104Z,7.22
2023-04-13T02:57:25.582Z,7.21
2023-04-13T03:02:31.342Z,7.28
2023-04-13T03:07:36.433Z,7.33
2023-04-13T03:12:39.876Z,7.71
2023-04-13T03:17:44.828Z,7.92
2023-04-13T03:22:48.334Z,8.15
2023-04-13T03:27:53.474Z,8.34
2023-04-13T03:32:58.326Z,8.47
2023-04-13T03:38:01.534Z,8.70
2023-04-13T03:43:04.957Z,8.81
2023-04-13T03:48:11.085Z,9.06
2023-04-13T03:53:14.498Z,9.45
2023-04-13T03:58:18.337Z,9.76
2023-04-13T04:03:25.608Z,10.33
2023-04-13T04:08:29.376Z,10.53
2023-04-13T04:13:32.905Z,11.09
2023-04-13T04:18:37.758Z,11.71
2023-04-13T04:23:41.236Z,14.24
2023-04-13T04:28:44.690Z,17.18
2023-04-13T04:33:51.900Z,18.94
2023-04-13T04:38:58.188Z,21.32
2023-04-13T04:44:02.967Z,18.14
2023-04-13T04:49:07.848Z,18.02
2023-04-13T04:54:11.626Z,21.48
2023-04-13T04:59:15.375Z,22.81
2023-04-13T05:04:20.262Z,23.28
2023-04-13T05:09:23.857Z,23.67
2023-04-13T05:14:27.449Z,25.55
2023-04-13T05:19:35.450Z,27.35
2023-04-13T05:24:40.454Z,28.60
2023-04-13T05:29:46.282Z,29.35
2023-04-13T05:34:52.791Z,30.62
2023-04-13T05:39:56.620Z,30.57
2023-04-13T05:45:00.321Z,30.26
2023-04-13T05:50:05.504Z,30.23
2023-04-13T05:55:09.488Z,29.24
2023-04-13T06:00:14.252Z,27.73
2023-04-13T06:05:19.911Z,27.86
2023-04-13T06:10:23.596Z,28.95
2023-04-13T06:15:27.536Z,30.52
2023-04-13T06:20:33.694Z,31.25
2023-04-13T06:25:38.723Z,31.54
2023-04-13T06:30:42.358Z,32.29
2023-04-13T06:35:47.445Z,32.71
2023-04-13T06:40:51.181Z,32.57
2023-04-13T06:46:00.294Z,32.76
2023-04-13T06:51:05.626Z,33.01
2023-04-13T06:56:10.085Z,34.26
2023-04-13T07:01:13.781Z,35.69
2023-04-13T07:06:18.967Z,35.47
2023-04-13T07:11:22.500Z,33.97
2023-04-13T07:16:26.338Z,35.23
2023-04-13T07:21:33.937Z,35.66
2023-04-13T07:26:37.400Z,34.52
2023-04-13T07:31:41.159Z,36.82
2023-04-13T07:36:47.163Z,36.19
2023-04-13T07:41:50.882Z,33.17
2023-04-13T07:46:55.934Z,31.40
2023-04-13T07:52:01.469Z,30.61
2023-04-13T07:57:05.122Z,31.92
2023-04-13T08:02:08.819Z,32.55
2023-04-13T08:07:14.014Z,30.83
2023-04-13T08:12:17.980Z,31.10
2023-04-13T08:17:21.914Z,32.34
2023-04-13T08:22:27.238Z,30.26
2023-04-13T08:27:30.720Z,30.56
2023-04-13T08:32:34.529Z,29.54
2023-04-13T08:37:39.967Z,27.27
2023-04-13T08:42:43.661Z,24.73
2023-04-13T08:47:46.913Z,23.10
2023-04-13T08:52:51.852Z,22.81
2023-04-13T08:57:59.371Z,22.23
2023-04-13T09:03:09.570Z,22.25
2023-04-13T09:08:17.383Z,22.25
2023-04-13T09:13:21.222Z,22.40
2023-04-13T09:18:24.980Z,21.56
2023-04-13T09:23:29.875Z,21.18
2023-04-13T09:28:33.402Z,20.93
2023-04-13T09:33:46.387Z,20.61
2023-04-13T09:38:55.322Z,21.10
2023-04-13T09:43:59.390Z,21.00
2023-04-13T09:49:05.056Z,20.34
2023-04-13T09:54:10.057Z,20.49
2023-04-13T09:59:14.568Z,20.36
2023-04-13T10:04:18.763Z,20.37
2023-04-13T10:09:26.703Z,20.11
2023-04-13T10:14:39.340Z,19.95
2023-04-13T10:19:47.190Z,20.00
2023-04-13T10:24:53.762Z,19.75
2023-04-13T10:29:57.754Z,19.85
2023-04-13T10:35:11.877Z,19.88
2023-04-13T10:40:17.244Z,20.00
2023-04-13T10:45:24.131Z,19.76
2023-04-13T10:50:28.679Z,19.60
2023-04-13T10:55:34.270Z,19.45
2023-04-13T11:00:46.196Z,19.38
2023-04-13T11:05:58.497Z,19.44
2023-04-13T11:11:03.415Z,19.39
2023-04-13T11:16:07.728Z,19.65
2023-04-13T11:21:16.453Z,19.65
2023-04-13T11:26:33.003Z,19.72
2023-04-13T11:31:39.157Z,19.98
2023-04-13T11:36:46.020Z,19.83
2023-04-13T11:41:51.064Z,19.56
2023-04-13T11:46:56.614Z,19.82
2023-04-13T11:52:01.312Z,19.70
2023-04-13T11:57:06.420Z,19.71
2023-04-13T12:02:20.814Z,19.51
2023-04-13T12:07:26.964Z,19.42
2023-04-13T12:12:51.560Z,19.37
2023-04-13T12:18:02.362Z,19.27
2023-04-13T12:23:22.784Z,19.30
2023-04-13T12:28:34.136Z,19.39
2023-04-13T12:33:38.629Z,19.32
2023-04-13T12:38:42.744Z,19.07
2023-04-13T12:43:47.601Z,18.58
2023-04-13T12:48:51.558Z,18.81
2023-04-13T12:53:54.967Z,18.67
2023-04-13T12:59:00.852Z,18.44
2023-04-13T13:04:05.764Z,18.46
2023-04-13T13:09:09.652Z,18.30
2023-04-13T13:14:14.651Z,18.17
2023-04-13T13:19:18.238Z,18.22
2023-04-13T13:24:21.799Z,18.36
2023-04-13T13:29:33.232Z,18.00
2023-04-13T13:34:36.879Z,17.88
2023-04-13T13:39:41.232Z,18.08
2023-04-13T13:44:46.461Z,17.57
2023-04-13T13:49:50.110Z,17.72
2023-04-13T13:54:54.754Z,17.40
2023-04-13T14:00:00.329Z,17.26
2023-04-13T14:05:04.393Z,17.19
2023-04-13T14:10:09.321Z,17.26
2023-04-13T14:15:15.081Z,16.96
2023-04-13T14:20:18.752Z,16.99
2023-04-13T14:25:22.428Z,16.77
2023-04-13T14:30:28.302Z,16.65
2023-04-13T14:35:32.187Z,16.35
2023-04-13T14:40:36.138Z,16.17
2023-04-13T14:45:41.192Z,16.05
2023-04-13T14:50:44.661Z,16.02
2023-04-13T14:55:48.249Z,15.84
2023-04-13T15:00:53.594Z,15.65
2023-04-13T15:06:03.502Z,15.55
2023-04-13T15:11:08.578Z,15.54
2023-04-13T15:16:13.754Z,15.44
2023-04-13T15:21:17.404Z,15.22
2023-04-13T15:26:21.853Z,15.12
2023-04-13T15:31:27.220Z,14.97
2023-04-13T15:36:30.723Z,14.86
2023-04-13T15:41:34.146Z,14.80
2023-04-13T15:46:40.447Z,14.87
2023-04-13T15:51:43.970Z,14.62
2023-04-13T15:56:47.588Z,14.58
2023-04-13T16:01:52.741Z,14.52
2023-04-13T16:07:12.109Z,14.41
2023-04-13T16:12:17.727Z,14.17
2023-04-13T16:17:31.021Z,14.06
2023-04-13T16:22:36.456Z,13.92
2023-04-13T16:27:41.703Z,13.67
2023-04-13T16:32:47.613Z,13.74
2023-04-13T16:37:51.253Z,13.61
2023-04-13T16:42:54.702Z,13.39
2023-04-13T16:47:59.736Z,13.18
2023-04-13T16:53:03.434Z,12.92
2023-04-13T16:58:07.647Z,12.74
2023-04-13T17:03:12.681Z,12.49
2023-04-13T17:08:17.057Z,12.42
2023-04-13T17:13:20.604Z,12.34
2023-04-13T17:18:25.973Z,12.18
2023-04-13T17:23:29.573Z,12.14
2023-04-13T17:28:33.273Z,11.96
2023-04-13T17:33:38.126Z,11.77
2023-04-13T17:38:41.368Z,11.74
2023-04-13T17:43:44.867Z,11.70
2023-04-13T17:48:49.776Z,11.61
2023-04-13T17:53:53.042Z,11.39
2023-04-13T17:58:56.600Z,11.26
2023-04-13T18:04:01.948Z,11.27
2023-04-13T18:09:05.724Z,11.15
2023-04-13T18:14:10.784Z,11.03
2023-04-13T18:19:15.846Z,11.00
2023-04-13T18:24:19.443Z,10.84
2023-04-13T18:29:23.229Z,10.71
2023-04-13T18:34:34.395Z,10.36
2023-04-13T18:39:39.639Z,10.48
2023-04-13T18:44:43.164Z,10.35
2023-04-13T18:49:47.978Z,10.26
2023-04-13T18:54:51.358Z,9.80
2023-04-13T18:59:55.161Z,9.90
2023-04-13T19:05:00.073Z,9.82
2023-04-13T19:10:03.682Z,9.72
2023-04-13T19:15:08.094Z,9.59
2023-04-13T19:20:13.472Z,9.59
2023-04-13T19:25:16.973Z,9.52
2023-04-13T19:30:21.018Z,9.26
2023-04-13T19:35:26.513Z,9.27
2023-04-13T19:40:30.138Z,9.05
2023-04-13T19:45:33.579Z,9.03
2023-04-13T19:50:38.464Z,8.94
2023-04-13T19:55:41.682Z,8.80
2023-04-13T20:00:47.642Z,8.71
2023-04-13T20:05:52.837Z,8.69
2023-04-13T20:10:57.980Z,8.40
2023-04-13T20:16:03.254Z,8.32
2023-04-13T20:21:08.420Z,8.23
2023-04-13T20:26:11.894Z,8.27
2023-04-13T20:31:15.852Z,8.18
2023-04-13T20:36:21.814Z,8.13
2023-04-13T20:41:27.271Z,8.04
2023-04-13T20:46:34.634Z,8.02
2023-04-13T20:51:40.136Z,7.88
2023-04-13T20:56:44.103Z,7.71
2023-04-13T21:01:49.092Z,7.65
2023-04-13T21:06:54.265Z,7.55
2023-04-13T21:11:58.138Z,7.27
2023-04-13T21:17:01.726Z,7.48
2023-04-13T21:22:06.738Z,7.28
2023-04-13T21:27:10.054Z,7.18
2023-04-13T21:32:14.060Z,7.22
2023-04-13T21:37:19.206Z,7.17
2023-04-13T21:42:22.845Z,6.95
2023-04-13T21:47:26.445Z,7.00
2023-04-13T21:52:31.432Z,7.00
2023-04-13T21:57:34.767Z,6.97
2023-04-13T22:02:38.412Z,6.97
2023-04-13T22:07:43.657Z,7.01
2023-04-13T22:12:48.062Z,7.02
2023-04-13T22:17:51.722Z,7.03
2023-04-13T22:22:56.592Z,6.91
2023-04-13T22:28:00.085Z,6.75
2023-04-13T22:33:03.671Z,6.61
2023-04-13T22:38:08.706Z,6.58
2023-04-13T22:43:11.817Z,6.55
2023-04-13T22:48:15.515Z,6.37
2023-04-13T22:53:20.419Z,6.25
2023-04-13T22:58:23.900Z,6.11
2023-04-13T23:03:27.878Z,6.12
2023-04-13T23:08:33.055Z,5.58
2023-04-13T23:13:36.972Z,5.62
2023-04-13T23:18:40.494Z,5.71
2023-04-13T23:23:45.594Z,5.53
2023-04-13T23:28:49.105Z,5.41
2023-04-13T23:33:53.918Z,5.29
2023-04-13T23:39:00.161Z,5.11
2023-04-13T23:44:03.881Z,4.88
2023-04-13T23:49:07.682Z,4.92
2023-04-13T23:54:12.782Z,4.86
2023-04-13T23:59:16.213Z,4.65
